Terminal Aerodrome Forecast
Issued by NWS

Home | Current Version | Previous Version | Graphics & Text | Print | Product List | Glossary On
Versions: 1 2 3 4 5 6 7 8 9 10 11 12 13 14 15 16 17 18
512
FTUS41 KCLE 120520
TAFFDY
TAF
KFDY 120520Z 1206/1306 24005KT P6SM BKN040
     FM121500 24012G20KT P6SM SCT035 OVC100
     FM122100 27014G22KT P6SM VCSH SCT025 OVC040
     FM130300 31016G24KT P6SM -SHSN OVC025=

USA.gov is the U.S. government's official web portal to all federal, state and local government web resources and services.